Time;durP1;ratioP1;P1;durP2;ratioP2;P2;SDS_P1;SDS_P2;PMS_P1;PMS_P2;Temp;Humidity;BMP_temperature;BMP_pressure;BME280_temperature;BME280_humidity;BME280_pressure;Samples;Min_cycle;Max_cycle;Signal;HPM_P1;HPM_P2
2023/12/05 00:01:55;;;;;;;;;;;;;;;-144.99;100.00;52682.50;5051908;28;19925;-64
2023/12/05 00:04:22;;;;;;;;;;;;;;;-144.99;100.00;52674.34;5054725;28;20011;-69
2023/12/05 00:06:48;;;;;;;;;;;;;;;-144.99;100.00;52680.47;5031690;28;19961;-69
2023/12/05 00:09:15;;;;;;;;;;;;;;;-144.99;100.00;52676.38;5030068;28;20055;-69
2023/12/05 00:11:42;;;;;;;;;;;;;;;-144.99;100.00;52692.69;5023300;28;19929;-69
2023/12/05 00:14:08;;;;;;;;;;;;;;;-144.99;100.00;52676.38;5032868;28;19952;-69
2023/12/05 00:16:36;;;;;;;;;;;;;;;-144.99;100.00;52676.38;5019709;28;19979;-69
2023/12/05 00:19:03;;;;;;;;;;;;;;;-144.99;100.00;52676.38;5023353;28;19925;-69
2023/12/05 00:21:29;;;;;;;;;;;;;;;-144.99;100.00;52686.59;5024590;28;19933;-68
2023/12/05 00:23:56;;;;;;;;;;;;;;;-144.99;100.00;52658.03;5026515;28;19957;-69
2023/12/05 00:26:22;;;;;;;;;;;;;;;-144.99;100.00;52713.09;5032933;28;19960;-68
2023/12/05 00:28:49;;;;;;;;;;;;;;;-144.99;100.00;52672.31;5025887;28;20354;-68
2023/12/05 00:31:15;;;;;;;;;;;;;;;-144.99;100.00;52653.97;5030145;28;19999;-69
2023/12/05 00:33:43;;;;;;;;;;;;;;;-144.99;100.00;52688.63;5023084;28;19978;-70
2023/12/05 00:36:11;;;;;;;;;;;;;;;-144.99;100.00;52641.72;5024300;28;19925;-70
2023/12/05 00:38:37;;;;;;;;;;;;;;;-144.99;100.00;52668.22;5027195;28;19925;-70
2023/12/05 00:41:04;;;;;;;;;;;;;;;-144.99;100.00;52656.00;5033868;28;19925;-71
2023/12/05 00:43:31;;;;;;;;;;;;;;;-144.99;100.00;52692.69;5026473;28;20016;-71
2023/12/05 00:45:57;;;;;;;;;;;;;;;-144.99;100.00;52672.31;5039751;28;19929;-71
2023/12/05 00:48:24;;;;;;;;;;;;;;;-144.99;100.00;52676.38;5040234;28;20058;-71
2023/12/05 00:50:52;;;;;;;;;;;;;;;-144.99;100.00;52678.44;5032588;28;20358;-71
2023/12/05 00:53:18;;;;;;;;;;;;;;;-144.99;100.00;52631.53;5045728;28;19972;-71
2023/12/05 00:55:45;;;;;;;;;;;;;;;-144.99;100.00;52668.22;5057631;28;20100;-75
2023/12/05 00:58:11;;;;;;;;;;;;;;;-144.99;100.00;52725.31;5059301;28;19921;-75
2023/12/05 01:00:38;;;;;;;;;;;;;;;-144.99;100.00;52672.31;5049302;28;19933;-75
2023/12/05 01:03:04;;;;;;;;;;;;;;;-144.99;100.00;52688.63;5023934;28;19929;-71
2023/12/05 01:05:31;;;;;;;;;;;;;;;-144.99;100.00;52711.03;5025991;28;20403;-72
2023/12/05 01:07:59;;;;;;;;;;;;;;;-144.99;100.00;52656.00;5019038;28;20391;-70
2023/12/05 01:10:25;;;;;;;;;;;;;;;-144.99;100.00;52686.59;5033408;28;19979;-65
2023/12/05 01:12:52;;;;;;;;;;;;;;;-144.99;100.00;52672.31;5021099;28;20324;-67
2023/12/05 01:15:18;;;;;;;;;;;;;;;-144.99;100.00;52680.47;5022391;28;19952;-67
2023/12/05 01:17:45;;;;;;;;;;;;;;;-144.99;100.00;52674.34;5024555;28;19972;-65
2023/12/05 01:20:12;;;;;;;;;;;;;;;-144.99;100.00;52692.69;5019148;28;19976;-66
2023/12/05 01:22:38;;;;;;;;;;;;;;;-144.99;100.00;52658.03;5024052;28;20012;-67
2023/12/05 01:25:07;;;;;;;;;;;;;;;-144.99;100.00;52717.16;5028201;28;19926;-66
2023/12/05 01:27:34;;;;;;;;;;;;;;;-144.99;100.00;52668.22;5045081;28;19936;-66
2023/12/05 01:30:00;;;;;;;;;;;;;;;-144.99;100.00;52629.50;5037739;28;19926;-67
2023/12/05 01:32:27;;;;;;;;;;;;;;;-144.99;100.00;52664.16;5031434;28;19922;-67
2023/12/05 01:34:53;;;;;;;;;;;;;;;-144.99;100.00;52684.53;5043042;28;19913;-66
2023/12/05 01:37:20;;;;;;;;;;;;;;;-144.99;100.00;52631.53;5049162;28;19929;-65
2023/12/05 01:39:46;;;;;;;;;;;;;;;-144.99;100.00;52674.34;5033499;28;19932;-67
2023/12/05 01:42:14;;;;;;;;;;;;;;;-144.99;100.00;52674.34;5030893;28;20526;-69
2023/12/05 01:44:41;;;;;;;;;;;;;;;-144.99;100.00;52680.47;5033980;28;19925;-74
2023/12/05 01:47:07;;;;;;;;;;;;;;;-144.99;100.00;52668.22;5047598;28;20453;-67
2023/12/05 01:49:34;;;;;;;;;;;;;;;-144.99;100.00;52700.84;5035141;28;19972;-67
2023/12/05 01:52:02;;;;;;;;;;;;;;;-144.99;100.00;52651.94;5031497;28;20413;-67
2023/12/05 01:54:29;;;;;;;;;;;;;;;-144.99;100.00;52688.63;5037154;28;19933;-67
2023/12/05 01:56:56;;;;;;;;;;;;;;;-144.99;100.00;52668.22;5036259;28;19936;-67
2023/12/05 01:59:24;;;;;;;;;;;;;;;-144.99;100.00;52643.78;5038508;28;20265;-67
2023/12/05 02:01:51;;;;;;;;;;;;;;;-144.99;100.00;52664.16;5026582;28;19976;-68
2023/12/05 02:04:17;;;;;;;;;;;;;;;-144.99;100.00;52672.31;5029523;28;20402;-67
2023/12/05 02:06:44;;;;;;;;;;;;;;;-144.99;100.00;52688.63;5030847;28;20013;-67
2023/12/05 02:09:12;;;;;;;;;;;;;;;-144.99;100.00;52700.84;5034721;28;19933;-68
2023/12/05 02:11:39;;;;;;;;;;;;;;;-144.99;100.00;52676.38;5036082;28;20016;-68
2023/12/05 02:14:07;;;;;;;;;;;;;;;-144.99;100.00;52668.22;5036633;28;20363;-72
2023/12/05 02:16:37;;;;;;;;;;;;;;;-144.99;100.00;52688.63;5034554;28;19925;-70
2023/12/05 02:19:09;;;;;;;;;;;;;;;-144.99;100.00;52688.63;5036872;28;19972;-69
2023/12/05 02:21:37;;;;;;;;;;;;;;;-144.99;100.00;52664.16;5037029;28;19925;-69
2023/12/05 02:24:16;;;;;;;;;;;;;;;-144.99;100.00;52680.47;5039533;28;19986;-69
2023/12/05 02:26:47;;;;;;;;;;;;;;;-144.99;100.00;52664.16;5033174;28;19956;-69
2023/12/05 02:29:15;;;;;;;;;;;;;;;-144.99;100.00;52668.22;5031447;28;19925;-68
2023/12/05 02:31:41;;;;;;;;;;;;;;;-144.99;100.00;52680.47;5040519;28;19971;-68
2023/12/05 02:34:08;;;;;;;;;;;;;;;-144.99;100.00;52643.78;5038129;28;19925;-67
2023/12/05 02:36:38;;;;;;;;;;;;;;;-144.99;100.00;52702.88;5032680;28;19925;-68
2023/12/05 02:39:12;;;;;;;;;;;;;;;-144.99;100.00;52684.53;5031002;28;19964;-68
2023/12/05 02:41:42;;;;;;;;;;;;;;;-144.99;100.00;52664.16;5037739;28;19925;-67
2023/12/05 02:44:11;;;;;;;;;;;;;;;-144.99;100.00;52662.13;5036855;28;19925;-67
2023/12/05 02:46:41;;;;;;;;;;;;;;;-144.99;100.00;52688.63;5028545;28;19933;-67
2023/12/05 02:49:08;;;;;;;;;;;;;;;-144.99;100.00;52668.22;5025758;28;19964;-67
2023/12/05 02:51:35;;;;;;;;;;;;;;;-144.99;100.00;52668.22;5025941;28;20346;-67
2023/12/05 02:54:05;;;;;;;;;;;;;;;-144.99;100.00;52676.38;5041327;28;19925;-68
2023/12/05 02:56:32;;;;;;;;;;;;;;;-144.99;100.00;52690.66;5035735;28;19932;-67
2023/12/05 02:58:59;;;;;;;;;;;;;;;-144.99;100.00;52639.69;5024233;28;19965;-66
2023/12/05 03:01:25;;;;;;;;;;;;;;;-144.99;100.00;52664.16;5027185;28;19925;-66
2023/12/05 03:03:53;;;;;;;;;;;;;;;-144.99;100.00;52709.00;5032719;28;20544;-67
2023/12/05 03:06:19;;;;;;;;;;;;;;;-144.99;100.00;52660.09;5028794;28;20457;-66
2023/12/05 03:08:46;;;;;;;;;;;;;;;-144.99;100.00;52656.00;5047365;28;19925;-65
2023/12/05 03:11:12;;;;;;;;;;;;;;;-144.99;100.00;52649.88;5050485;28;19940;-65
2023/12/05 03:13:39;;;;;;;;;;;;;;;-144.99;100.00;52684.53;5045349;28;19952;-66
2023/12/05 03:16:06;;;;;;;;;;;;;;;-144.99;100.00;52676.38;5052189;28;19936;-70
2023/12/05 03:18:33;;;;;;;;;;;;;;;-144.99;100.00;52662.13;5043475;28;19926;-72
2023/12/05 03:21:01;;;;;;;;;;;;;;;-144.99;100.00;52651.94;5037765;28;19926;-73
2023/12/05 03:23:27;;;;;;;;;;;;;;;-144.99;100.00;52672.31;5032208;28;19929;-71
2023/12/05 03:25:54;;;;;;;;;;;;;;;-144.99;100.00;52672.31;5025400;28;20039;-71
2023/12/05 03:28:20;;;;;;;;;;;;;;;-144.99;100.00;52656.00;5034031;28;19972;-72
2023/12/05 03:30:47;;;;;;;;;;;;;;;-144.99;100.00;52658.03;5030004;28;19925;-67
2023/12/05 03:33:13;;;;;;;;;;;;;;;-144.99;100.00;52639.69;5032054;28;19995;-69
2023/12/05 03:35:40;;;;;;;;;;;;;;;-144.99;100.00;52676.38;5024991;28;19964;-70
2023/12/05 03:38:08;;;;;;;;;;;;;;;-144.99;100.00;52668.22;5027921;28;19961;-72
2023/12/05 03:40:34;;;;;;;;;;;;;;;-144.99;100.00;52651.94;5027292;28;20345;-69
2023/12/05 03:43:01;;;;;;;;;;;;;;;-144.99;100.00;52688.63;5025020;28;19979;-65
2023/12/05 03:45:27;;;;;;;;;;;;;;;-144.99;100.00;52660.09;5027587;28;19995;-67
2023/12/05 03:47:54;;;;;;;;;;;;;;;-144.99;100.00;52700.84;5029338;28;21584;-66
2023/12/05 03:50:20;;;;;;;;;;;;;;;-144.99;100.00;52696.78;5012461;28;19933;-66
2023/12/05 03:52:47;;;;;;;;;;;;;;;-144.99;100.00;52651.94;5028767;28;20415;-65
2023/12/05 03:55:15;;;;;;;;;;;;;;;-144.99;100.00;52668.22;5024363;28;19929;-66
2023/12/05 03:57:41;;;;;;;;;;;;;;;-144.99;100.00;52688.63;5026519;28;19960;-65
2023/12/05 04:00:10;;;;;;;;;;;;;;;-144.99;100.00;52674.34;5025564;28;19925;-66
2023/12/05 04:02:36;;;;;;;;;;;;;;;-144.99;100.00;52692.69;5024162;28;19932;-65
2023/12/05 04:05:03;;;;;;;;;;;;;;;-144.99;100.00;52633.59;5033600;28;19987;-65
2023/12/05 04:07:29;;;;;;;;;;;;;;;-144.99;100.00;52660.09;5031205;28;19980;-65
2023/12/05 04:09:56;;;;;;;;;;;;;;;-144.99;100.00;52688.63;5026631;28;19980;-67
2023/12/05 04:12:23;;;;;;;;;;;;;;;-144.99;100.00;52676.38;5031659;28;19925;-67
2023/12/05 04:14:50;;;;;;;;;;;;;;;-144.99;100.00;52656.00;5025003;28;19983;-67
2023/12/05 04:17:16;;;;;;;;;;;;;;;-144.99;100.00;52680.47;5031845;28;20151;-66
2023/12/05 04:19:43;;;;;;;;;;;;;;;-144.99;100.00;52666.19;5030394;28;19929;-67
2023/12/05 04:22:09;;;;;;;;;;;;;;;-144.99;100.00;52615.25;5031315;28;19926;-68
2023/12/05 04:24:36;;;;;;;;;;;;;;;-144.99;100.00;52678.44;5024742;28;19926;-63
2023/12/05 04:27:03;;;;;;;;;;;;;;;-144.99;100.00;52680.47;5031286;28;19929;-65
2023/12/05 04:29:31;;;;;;;;;;;;;;;-144.99;100.00;52672.31;5030213;28;20028;-66
2023/12/05 04:31:59;;;;;;;;;;;;;;;-144.99;100.00;52684.53;5027715;28;20435;-65
2023/12/05 04:34:25;;;;;;;;;;;;;;;-144.99;100.00;52647.84;5031018;28;19987;-66
2023/12/05 04:36:52;;;;;;;;;;;;;;;-144.99;100.00;52704.94;5022840;28;19999;-65
2023/12/05 04:39:18;;;;;;;;;;;;;;;-144.99;100.00;52656.00;5025186;28;19932;-65
2023/12/05 04:41:44;;;;;;;;;;;;;;;-144.99;100.00;52680.47;5023722;28;20355;-65
2023/12/05 04:44:11;;;;;;;;;;;;;;;-144.99;100.00;52643.78;5021180;28;20003;-64
2023/12/05 04:46:39;;;;;;;;;;;;;;;-144.99;100.00;52688.63;5024567;28;19964;-65
2023/12/05 04:49:06;;;;;;;;;;;;;;;-144.99;100.00;52678.44;5032466;28;19960;-64
2023/12/05 04:51:32;;;;;;;;;;;;;;;-144.99;100.00;52643.78;5027717;28;19941;-65
2023/12/05 04:53:59;;;;;;;;;;;;;;;-144.99;100.00;52645.81;5032866;28;19965;-64
2023/12/05 04:56:25;;;;;;;;;;;;;;;-144.99;100.00;52678.44;5027881;28;19987;-64
2023/12/05 04:58:52;;;;;;;;;;;;;;;-144.99;100.00;52692.69;5033939;28;19963;-63
2023/12/05 05:01:18;;;;;;;;;;;;;;;-144.99;100.00;52651.94;5027145;28;19948;-64
2023/12/05 05:03:46;;;;;;;;;;;;;;;-144.99;100.00;52684.53;5052779;28;20148;-64
2023/12/05 05:06:13;;;;;;;;;;;;;;;-144.99;100.00;52694.72;5045339;28;19934;-64
2023/12/05 05:08:39;;;;;;;;;;;;;;;-144.99;100.00;52692.69;5040585;28;19925;-64
2023/12/05 05:11:06;;;;;;;;;;;;;;;-144.99;100.00;52664.16;5042148;28;20391;-65
2023/12/05 05:13:32;;;;;;;;;;;;;;;-144.99;100.00;52639.69;5045651;28;19925;-65
2023/12/05 05:15:59;;;;;;;;;;;;;;;-144.99;100.00;52688.63;5048959;28;19929;-66
2023/12/05 05:18:25;;;;;;;;;;;;;;;-144.99;100.00;52694.72;5047667;28;19934;-66
2023/12/05 05:20:53;;;;;;;;;;;;;;;-144.99;100.00;52647.84;5024695;28;19983;-65
2023/12/05 05:23:20;;;;;;;;;;;;;;;-144.99;100.00;52682.50;5024159;28;19976;-65
2023/12/05 05:25:46;;;;;;;;;;;;;;;-144.99;100.00;52694.72;5028365;28;20424;-67
2023/12/05 05:28:13;;;;;;;;;;;;;;;-144.99;100.00;52643.78;5026990;28;19929;-74
2023/12/05 05:30:39;;;;;;;;;;;;;;;-144.99;100.00;52668.22;5024685;28;19925;-73
2023/12/05 05:33:06;;;;;;;;;;;;;;;-144.99;100.00;52688.63;5028737;28;19964;-73
2023/12/05 05:35:32;;;;;;;;;;;;;;;-144.99;100.00;52668.22;5027233;28;19968;-72
2023/12/05 05:38:00;;;;;;;;;;;;;;;-144.99;100.00;52700.84;5026595;28;19972;-72
2023/12/05 05:40:27;;;;;;;;;;;;;;;-144.99;100.00;52684.53;5022450;28;20303;-73
2023/12/05 05:42:54;;;;;;;;;;;;;;;-144.99;100.00;52676.38;5028965;28;19940;-76
2023/12/05 05:45:20;;;;;;;;;;;;;;;-144.99;100.00;52651.94;5028779;28;20357;-74
2023/12/05 05:47:47;;;;;;;;;;;;;;;-144.99;100.00;52688.63;5025525;28;20319;-73
2023/12/05 05:50:13;;;;;;;;;;;;;;;-144.99;100.00;52700.84;5018357;28;19957;-73
2023/12/05 05:52:41;;;;;;;;;;;;;;;-144.99;100.00;52649.88;5017302;28;20343;-73
2023/12/05 05:55:09;;;;;;;;;;;;;;;-144.99;100.00;52664.16;5027603;28;20032;-72
2023/12/05 05:57:36;;;;;;;;;;;;;;;-144.99;100.00;52668.22;5024133;28;19925;-73
2023/12/05 06:00:03;;;;;;;;;;;;;;;-144.99;100.00;52721.22;5025934;28;19961;-74
2023/12/05 06:02:30;;;;;;;;;;;;;;;-144.99;100.00;52709.00;5033736;28;20164;-73
2023/12/05 06:04:56;;;;;;;;;;;;;;;-144.99;100.00;52676.38;5047327;28;20241;-74
2023/12/05 06:07:23;;;;;;;;;;;;;;;-144.99;100.00;52647.84;5064011;22;19972;-67
2023/12/05 06:09:50;;;;;;;;;;;;;;;-144.99;100.00;52682.50;5057374;28;19970;-66
2023/12/05 06:12:18;;;;;;;;;;;;;;;-144.99;100.00;52664.16;5051215;28;19936;-66
2023/12/05 06:14:44;;;;;;;;;;;;;;;-144.99;100.00;52660.09;5055310;28;19971;-66
2023/12/05 06:17:11;;;;;;;;;;;;;;;-144.99;100.00;52696.78;5051145;28;20045;-67
2023/12/05 06:19:37;;;;;;;;;;;;;;;-144.99;100.00;52651.94;5058274;28;20014;-71
2023/12/05 06:22:04;;;;;;;;;;;;;;;-144.99;100.00;52684.53;5061336;28;20319;-71
2023/12/05 06:24:30;;;;;;;;;;;;;;;-144.99;100.00;52607.09;5059810;28;20351;-71
2023/12/05 06:26:57;;;;;;;;;;;;;;;-144.99;100.00;52684.53;5057686;28;19925;-72
2023/12/05 06:29:24;;;;;;;;;;;;;;;-144.99;100.00;52678.44;5059662;28;19932;-71
2023/12/05 06:31:51;;;;;;;;;;;;;;;-144.99;100.00;52660.09;5057961;28;19937;-69
2023/12/05 06:34:17;;;;;;;;;;;;;;;-144.99;100.00;52647.84;5063518;28;19983;-70
2023/12/05 06:36:44;;;;;;;;;;;;;;;-144.99;100.00;52629.50;5055892;28;20346;-70
2023/12/05 06:39:10;;;;;;;;;;;;;;;-144.99;100.00;52682.50;5057158;28;19971;-71
2023/12/05 06:41:37;;;;;;;;;;;;;;;-144.99;100.00;52672.31;4358974;28;10000850;-72
2023/12/05 06:44:03;;;;;;;;;;;;;;;-144.99;100.00;52696.78;5054871;28;19932;-71
2023/12/05 06:46:31;;;;;;;;;;;;;;;-144.99;100.00;52700.84;5061049;28;20038;-71
2023/12/05 06:48:58;;;;;;;;;;;;;;;-144.99;100.00;52651.94;5071921;28;20478;-72
2023/12/05 06:51:25;;;;;;;;;;;;;;;-144.99;100.00;52627.47;5068419;28;20326;-70
2023/12/05 06:53:51;;;;;;;;;;;;;;;-144.99;100.00;52680.47;5060537;28;20030;-70
2023/12/05 06:56:19;;;;;;;;;;;;;;;-144.99;100.00;52656.00;5065479;28;20039;-70
2023/12/05 06:58:46;;;;;;;;;;;;;;;-144.99;100.00;52688.63;5058659;28;19929;-72
2023/12/05 07:01:12;;;;;;;;;;;;;;;-144.99;100.00;52709.00;5057925;28;20530;-70
2023/12/05 07:03:40;;;;;;;;;;;;;;;-144.99;100.00;52633.59;5063323;28;19983;-69
2023/12/05 07:06:07;;;;;;;;;;;;;;;-144.99;100.00;52664.16;5058083;28;20366;-70
2023/12/05 07:08:33;;;;;;;;;;;;;;;-144.99;100.00;52656.00;5066182;28;20101;-70
2023/12/05 07:11:00;;;;;;;;;;;;;;;-144.99;100.00;52688.63;5065174;28;19964;-70
2023/12/05 07:13:27;;;;;;;;;;;;;;;-144.99;100.00;52678.44;5056291;28;20015;-71
2023/12/05 07:15:54;;;;;;;;;;;;;;;-144.99;100.00;52656.00;5057973;28;19959;-70
2023/12/05 07:18:20;;;;;;;;;;;;;;;-144.99;100.00;52684.53;5062428;28;20474;-70
2023/12/05 07:20:48;;;;;;;;;;;;;;;-144.99;100.00;52678.44;5062879;28;20031;-69
2023/12/05 07:23:15;;;;;;;;;;;;;;;-144.99;100.00;52647.84;5052806;28;19997;-70
2023/12/05 07:25:42;;;;;;;;;;;;;;;-144.99;100.00;52696.78;5060859;28;19964;-73
2023/12/05 07:28:09;;;;;;;;;;;;;;;-144.99;100.00;52647.84;5059628;28;19924;-70
2023/12/05 07:30:36;;;;;;;;;;;;;;;-144.99;100.00;52668.22;5076606;28;19996;-74
2023/12/05 07:33:02;;;;;;;;;;;;;;;-144.99;100.00;52709.00;5067880;28;19933;-71
2023/12/05 07:35:29;;;;;;;;;;;;;;;-144.99;100.00;52660.09;5054320;28;20118;-71
2023/12/05 07:37:57;;;;;;;;;;;;;;;-144.99;100.00;52641.72;5061256;28;20947;-70
2023/12/05 07:40:23;;;;;;;;;;;;;;;-144.99;100.00;52656.00;5060664;28;19960;-69
2023/12/05 07:42:50;;;;;;;;;;;;;;;-144.99;100.00;52647.84;5054831;28;19952;-69
2023/12/05 07:45:16;;;;;;;;;;;;;;;-144.99;100.00;52676.38;5062272;28;19943;-69
2023/12/05 07:47:43;;;;;;;;;;;;;;;-144.99;100.00;52656.00;5062754;28;20363;-69
2023/12/05 07:50:12;;;;;;;;;;;;;;;-144.99;100.00;52664.16;5061131;28;19987;-69
2023/12/05 07:52:39;;;;;;;;;;;;;;;-144.99;100.00;52658.03;4714018;28;10000005;-69
2023/12/05 07:55:07;;;;;;;;;;;;;;;-144.99;100.00;52700.84;5054364;28;19929;-69
2023/12/05 07:57:34;;;;;;;;;;;;;;;-144.99;100.00;52647.84;5057476;28;19973;-69
2023/12/05 08:00:04;;;;;;;;;;;;;;;-144.99;100.00;52656.00;5060802;28;19928;-69
2023/12/05 08:02:30;;;;;;;;;;;;;;;-144.99;100.00;52645.81;5063466;28;19940;-69
2023/12/05 08:04:57;;;;;;;;;;;;;;;-144.99;100.00;52668.22;5053841;28;20007;-69
2023/12/05 08:07:23;;;;;;;;;;;;;;;-144.99;100.00;52651.94;5054236;28;19928;-69
2023/12/05 08:09:50;;;;;;;;;;;;;;;-144.99;100.00;52684.53;5061179;28;19982;-69
2023/12/05 08:12:18;;;;;;;;;;;;;;;-144.99;100.00;52709.00;5070820;28;19933;-69
2023/12/05 08:14:44;;;;;;;;;;;;;;;-144.99;100.00;52660.09;5070940;28;19994;-70
2023/12/05 08:17:11;;;;;;;;;;;;;;;-144.99;100.00;52702.88;5063562;28;20015;-70
2023/12/05 08:19:37;;;;;;;;;;;;;;;-144.99;100.00;52670.28;5054689;28;19960;-68
2023/12/05 08:22:04;;;;;;;;;;;;;;;-144.99;100.00;52643.78;5063786;28;20282;-68
2023/12/05 08:24:31;;;;;;;;;;;;;;;-144.99;100.00;52664.16;5055789;28;19950;-68
2023/12/05 08:26:58;;;;;;;;;;;;;;;-144.99;100.00;52668.22;5063719;28;19935;-68
2023/12/05 08:29:26;;;;;;;;;;;;;;;-144.99;100.00;52676.38;5057177;28;20013;-68
2023/12/05 08:31:53;;;;;;;;;;;;;;;-144.99;100.00;52672.31;5060106;28;19925;-69
2023/12/05 08:34:19;;;;;;;;;;;;;;;-144.99;100.00;52668.22;5061672;28;19924;-69
2023/12/05 08:36:46;;;;;;;;;;;;;;;-144.99;100.00;52649.88;5064152;28;19950;-69
2023/12/05 08:39:12;;;;;;;;;;;;;;;-144.99;100.00;52668.22;5056022;28;19960;-69
2023/12/05 08:41:39;;;;;;;;;;;;;;;-144.99;100.00;52692.69;5062464;28;19929;-68
2023/12/05 08:44:05;;;;;;;;;;;;;;;-144.99;100.00;52656.00;5061809;28;20310;-69
2023/12/05 08:46:34;;;;;;;;;;;;;;;-144.99;100.00;52651.94;5060423;28;20484;-70
2023/12/05 08:49:00;;;;;;;;;;;;;;;-144.99;100.00;52668.22;5062956;28;19932;-69
2023/12/05 08:51:27;;;;;;;;;;;;;;;-144.99;100.00;52664.16;5068433;28;20119;-69
2023/12/05 08:53:53;;;;;;;;;;;;;;;-144.99;100.00;52680.47;5079603;28;19982;-69
2023/12/05 08:56:20;;;;;;;;;;;;;;;-144.99;100.00;52698.81;5062521;28;20440;-69
2023/12/05 08:58:46;;;;;;;;;;;;;;;-144.99;100.00;52651.94;5057239;28;19928;-70
2023/12/05 09:01:13;;;;;;;;;;;;;;;-144.99;100.00;52619.31;5051125;28;20012;-71
2023/12/05 09:03:40;;;;;;;;;;;;;;;-144.99;100.00;52639.69;5049688;28;20378;-68
2023/12/05 09:06:07;;;;;;;;;;;;;;;-144.99;100.00;52680.47;5053126;28;20359;-68
2023/12/05 09:08:34;;;;;;;;;;;;;;;-144.99;100.00;52651.94;5054224;28;19929;-69
2023/12/05 09:11:00;;;;;;;;;;;;;;;-144.99;100.00;52660.09;5059340;28;20015;-70
2023/12/05 09:13:27;;;;;;;;;;;;;;;-144.99;100.00;52629.50;5053022;28;20297;-69
2023/12/05 09:15:54;;;;;;;;;;;;;;;-144.99;100.00;52615.25;5058532;28;19979;-70
2023/12/05 09:18:22;;;;;;;;;;;;;;;-144.99;100.00;52664.16;5059279;28;19991;-68
2023/12/05 09:20:50;;;;;;;;;;;;;;;-144.99;100.00;52660.09;5059442;28;19936;-69
2023/12/05 09:23:16;;;;;;;;;;;;;;;-144.99;100.00;52653.97;5056904;28;19932;-69
2023/12/05 09:25:43;;;;;;;;;;;;;;;-144.99;100.00;52643.78;5053446;28;19929;-70
2023/12/05 09:28:09;;;;;;;;;;;;;;;-144.99;100.00;52698.81;5055525;28;20036;-70
2023/12/05 09:30:36;;;;;;;;;;;;;;;-144.99;100.00;52676.38;5054404;28;19924;-69
2023/12/05 09:33:02;;;;;;;;;;;;;;;-144.99;100.00;52647.84;5068770;28;20291;-69
2023/12/05 09:35:29;;;;;;;;;;;;;;;-144.99;100.00;52647.84;5075484;28;19929;-69
2023/12/05 09:37:57;;;;;;;;;;;;;;;-144.99;100.00;52658.03;5056437;28;20003;-70
2023/12/05 09:40:23;;;;;;;;;;;;;;;-144.99;100.00;52684.53;5060102;28;19936;-69
2023/12/05 09:42:51;;;;;;;;;;;;;;;-144.99;100.00;52623.38;5060757;28;19956;-69
2023/12/05 09:45:19;;;;;;;;;;;;;;;-144.99;100.00;52653.97;5061325;28;20005;-70
2023/12/05 09:47:46;;;;;;;;;;;;;;;-144.99;100.00;52660.09;5060567;28;19928;-69
2023/12/05 09:50:13;;;;;;;;;;;;;;;-144.99;100.00;52668.22;5050929;28;20398;-69
2023/12/05 09:52:41;;;;;;;;;;;;;;;-144.99;100.00;52668.22;5054501;28;20354;-68
2023/12/05 09:55:09;;;;;;;;;;;;;;;-144.99;100.00;52645.81;5067878;28;19928;-70
2023/12/05 09:57:35;;;;;;;;;;;;;;;-144.99;100.00;52664.16;5060261;28;20008;-69
2023/12/05 10:00:03;;;;;;;;;;;;;;;-144.99;100.00;52670.28;5060211;28;19935;-68
2023/12/05 10:02:31;;;;;;;;;;;;;;;-144.99;100.00;52617.28;5058947;28;19974;-68
2023/12/05 10:05:00;;;;;;;;;;;;;;;-144.99;100.00;52668.22;5059807;28;19930;-69
2023/12/05 10:07:27;;;;;;;;;;;;;;;-144.99;100.00;52688.63;5060842;28;19935;-69
2023/12/05 10:09:54;;;;;;;;;;;;;;;-144.99;100.00;52639.69;5058605;28;20018;-69
2023/12/05 10:12:22;;;;;;;;;;;;;;;-144.99;100.00;52660.09;5061580;28;19971;-68
2023/12/05 10:14:49;;;;;;;;;;;;;;;-144.99;100.00;52664.16;5062207;28;20257;-69
2023/12/05 10:17:15;;;;;;;;;;;;;;;-144.99;100.00;52668.22;5060797;28;20424;-68
2023/12/05 10:19:42;;;;;;;;;;;;;;;-144.99;100.00;52664.16;5061015;28;19963;-69
2023/12/05 10:22:09;;;;;;;;;;;;;;;-144.99;100.00;52627.47;5064872;28;19935;-68
2023/12/05 10:24:39;;;;;;;;;;;;;;;-144.99;100.00;52676.38;5065716;28;19982;-68
2023/12/05 10:27:07;;;;;;;;;;;;;;;-144.99;100.00;52635.63;5059892;28;19975;-71
2023/12/05 10:29:39;;;;;;;;;;;;;;;-144.99;100.00;52656.00;5064148;28;20043;-68
2023/12/05 10:32:06;;;;;;;;;;;;;;;-144.99;100.00;52631.53;5059860;28;20385;-70
2023/12/05 10:34:45;;;;;;;;;;;;;;;-144.99;100.00;52653.97;5060856;28;19935;-69
2023/12/05 10:37:12;;;;;;;;;;;;;;;-144.99;100.00;52635.63;5062008;28;20409;-69
2023/12/05 10:39:38;;;;;;;;;;;;;;;-144.99;100.00;52627.47;5059174;28;19928;-69
2023/12/05 10:42:05;;;;;;;;;;;;;;;-144.99;100.00;52623.38;5057322;28;19980;-70
2023/12/05 10:44:39;;;;;;;;;;;;;;;-144.99;100.00;52651.94;5065964;28;19971;-69
2023/12/05 10:47:05;;;;;;;;;;;;;;;-144.99;100.00;52651.94;5057938;28;19929;-68
2023/12/05 10:49:33;;;;;;;;;;;;;;;-144.99;100.00;52656.00;5058615;28;19925;-70
2023/12/05 10:51:59;;;;;;;;;;;;;;;-144.99;100.00;52623.38;5057760;28;19929;-70
2023/12/05 10:54:26;;;;;;;;;;;;;;;-144.99;100.00;52653.97;5055864;28;20003;-69
2023/12/05 10:56:56;;;;;;;;;;;;;;;-144.99;100.00;52619.31;5059047;28;19931;-70
2023/12/05 10:59:22;;;;;;;;;;;;;;;-144.99;100.00;52682.50;5053595;28;20027;-70
2023/12/05 11:01:50;;;;;;;;;;;;;;;-144.99;100.00;52658.03;5060403;28;19955;-69
2023/12/05 11:04:18;;;;;;;;;;;;;;;-144.99;100.00;52676.38;5062051;28;20460;-69
2023/12/05 11:06:44;;;;;;;;;;;;;;;-144.99;100.00;52660.09;5061099;28;19971;-70
2023/12/05 11:09:11;;;;;;;;;;;;;;;-144.99;100.00;52615.25;5055311;28;19929;-69
2023/12/05 11:11:41;;;;;;;;;;;;;;;-144.99;100.00;52704.94;5061938;28;19928;-70
2023/12/05 11:14:11;;;;;;;;;;;;;;;-144.99;100.00;52656.00;5057761;28;20022;-68
2023/12/05 11:16:40;;;;;;;;;;;;;;;-144.99;100.00;52645.81;5064769;28;20416;-68
2023/12/05 11:19:15;;;;;;;;;;;;;;;-144.99;100.00;52660.09;5058380;28;19931;-69
2023/12/05 11:21:50;;;;;;;;;;;;;;;-144.99;100.00;52660.09;5056569;28;20022;-68
2023/12/05 11:24:30;;;;;;;;;;;;;;;-144.99;100.00;52647.84;5064372;28;19992;-69
2023/12/05 11:27:10;;;;;;;;;;;;;;;-144.99;100.00;52682.50;5049867;28;20002;-69
2023/12/05 11:29:49;;;;;;;;;;;;;;;-144.99;100.00;52676.38;5065075;28;20351;-69
2023/12/05 11:32:18;;;;;;;;;;;;;;;-144.99;100.00;52651.94;5060116;28;19932;-70
2023/12/05 11:34:59;;;;;;;;;;;;;;;-144.99;100.00;52643.78;5056511;28;19935;-69
2023/12/05 11:37:36;;;;;;;;;;;;;;;-144.99;100.00;52692.69;5065708;28;20564;-72
2023/12/05 11:40:03;;;;;;;;;;;;;;;-144.99;100.00;52607.09;5063423;28;19932;-69
2023/12/05 11:42:34;;;;;;;;;;;;;;;-144.99;100.00;52651.94;5058900;28;19932;-69
2023/12/05 11:45:20;;;;;;;;;;;;;;;-144.99;100.00;52656.00;5059579;28;19945;-68
2023/12/05 11:47:47;;;;;;;;;;;;;;;-144.99;100.00;52660.09;5061642;28;20420;-69
2023/12/05 11:50:16;;;;;;;;;;;;;;;-144.99;100.00;52658.03;5057858;28;19934;-68
2023/12/05 11:52:44;;;;;;;;;;;;;;;-144.99;100.00;52639.69;5057422;28;20326;-69
2023/12/05 11:55:12;;;;;;;;;;;;;;;-144.99;100.00;52651.94;5060760;28;20382;-69
2023/12/05 11:57:39;;;;;;;;;;;;;;;-144.99;100.00;52668.22;5062877;28;19928;-69
2023/12/05 12:00:07;;;;;;;;;;;;;;;-144.99;100.00;52700.84;5056141;28;20040;-69
2023/12/05 12:02:42;;;;;;;;;;;;;;;-144.99;100.00;52656.00;5061016;28;20033;-69
2023/12/05 12:05:10;;;;;;;;;;;;;;;-144.99;100.00;52680.47;5053577;28;19935;-69
2023/12/05 12:07:44;;;;;;;;;;;;;;;-144.99;100.00;52607.09;5060395;28;20047;-69
2023/12/05 12:10:10;;;;;;;;;;;;;;;-144.99;100.00;52668.22;5054822;28;20013;-68
2023/12/05 12:12:37;;;;;;;;;;;;;;;-144.99;100.00;52662.13;5055170;28;19978;-69
2023/12/05 12:15:04;;;;;;;;;;;;;;;-144.99;100.00;52684.53;5061714;28;20341;-69
2023/12/05 12:17:30;;;;;;;;;;;;;;;-144.99;100.00;52639.69;5059377;28;19935;-69
2023/12/05 12:19:57;;;;;;;;;;;;;;;-144.99;100.00;52639.69;5061661;28;20159;-69